Latest Weather Observations for Melville Water

IDW60801

Issued at 6:35 pm WST Wednesday 20 August 2014 (issued every 30 minutes, with the page automatically refreshed every 10 minutes)

About weather observations | Map of weather stations | Latest weather observations for WA | Other Formats
Station Details ID: 009091 Name: INNER DOLPHIN PYLON Lat: -31.99 Lon: 115.83 Height: 0.0 m
Data from the previous 72 hours. | See also: Recent months for locations in Western Australia
Date/Time
WST
Temp
°C
App
Temp
°C
Dew
Point
Rel
Hum
%
Delta-T
°C
Wind Press
QNH
hPa
Press
MSL
hPa
Rain
since 9 am
mm
Dir
 
Spd
km/h
Gust
km/h
Spd
kts
Gust
kts
20/06:30pm - - - - - N 7 9 4 5 - - -
20/06:00pm - - - - - N 9 11 5 6 - - -
20/05:30pm - - - - - NNW 9 15 5 8 - - -
20/05:00pm - - - - - NNW 15 20 8 11 - - -
20/04:30pm - - - - - NNW 19 26 10 14 - - -
20/04:00pm - - - - - NNW 15 24 8 13 - - -
20/03:30pm - - - - - NNW 17 28 9 15 - - -
20/03:00pm - - - - - NNW 13 19 7 10 - - -
20/02:30pm - - - - - N 9 19 5 10 - - -
20/02:00pm - - - - - N 6 7 3 4 - - -
20/01:30pm - - - - - WNW 7 13 4 7 - - -
20/01:00pm - - - - - E 4 7 2 4 - - -
20/12:30pm - - - - - NW 4 11 2 6 - - -
20/12:00pm - - - - - NW 17 30 9 16 - - -
20/11:30am - - - - - N 20 30 11 16 - - -
20/11:00am - - - - - N 26 33 14 18 - - -
20/10:30am - - - - - N 28 37 15 20 - - -
20/10:00am - - - - - N 24 35 13 19 - - -
20/09:30am - - - - - N 22 30 12 16 - - -
20/09:00am - - - - - N 17 22 9 12 - - -
20/08:30am - - - - - N 11 15 6 8 - - -
20/08:00am - - - - - N 13 19 7 10 - - -
20/07:30am - - - - - NNE 15 19 8 10 - - -
20/07:00am - - - - - NE 13 15 7 8 - - -
20/06:30am - - - - - NE 13 17 7 9 - - -
20/06:00am - - - - - NE 15 19 8 10 - - -
20/05:30am - - - - - NNE 11 11 6 6 - - -
20/05:00am - - - - - N 7 9 4 5 - - -
20/04:30am - - - - - NNE 9 11 5 6 - - -
20/04:00am - - - - - NNE 9 13 5 7 - - -
20/03:30am - - - - - NE 11 15 6 8 - - -
20/03:00am - - - - - NNE 13 15 7 8 - - -
20/02:30am - - - - - NNE 6 11 3 6 - - -
20/02:00am - - - - - NE 7 11 4 6 - - -
20/01:30am - - - - - NNE 9 11 5 6 - - -
20/01:00am - - - - - NE 11 13 6 7 - - -
20/12:30am - - - - - ENE 13 15 7 8 - - -
20/12:00am - - - - - E 9 11 5 6 - - -
 
Date/Time
WST
Temp
°C
App
Temp
°C
Dew
Point
Rel
Hum
%
Delta-T
°C
Wind Press
QNH
hPa
Press
MSL
hPa
Rain
since 9 am
mm
Dir
 
Spd
km/h
Gust
km/h
Spd
kts
Gust
kts
19/11:30pm - - - - - ESE 6 7 3 4 - - -
19/11:00pm - - - - - ENE 6 9 3 5 - - -
19/10:30pm - - - - - SSW 4 11 2 6 - - -
19/10:00pm - - - - - NNW 7 7 4 4 - - -
19/09:30pm - - - - - N 11 17 6 9 - - -
19/09:00pm - - - - - NW 11 17 6 9 - - -
19/08:30pm - - - - - NNW 9 11 5 6 - - -
19/08:00pm - - - - - NNW 9 11 5 6 - - -
19/07:30pm - - - - - NNW 9 11 5 6 - - -
19/07:00pm - - - - - NW 9 11 5 6 - - -
19/06:30pm - - - - - NW 6 9 3 5 - - -
19/06:00pm - - - - - NW 6 9 3 5 - - -
19/05:30pm - - - - - WNW 9 13 5 7 - - -
19/05:00pm - - - - - WNW 7 17 4 9 - - -
19/04:30pm - - - - - WNW 11 15 6 8 - - -
19/04:00pm - - - - - W 15 19 8 10 - - -
19/03:30pm - - - - - W 15 20 8 11 - - -
19/03:00pm - - - - - WSW 15 19 8 10 - - -
19/02:30pm - - - - - W 15 20 8 11 - - -
19/02:00pm - - - - - WSW 13 17 7 9 - - -
19/01:30pm - - - - - WSW 19 24 10 13 - - -
19/01:00pm - - - - - SW 11 26 6 14 - - -
19/12:30pm - - - - - CALM 0 2 0 1 - - -
19/12:00pm - - - - - ENE 4 6 2 3 - - -
19/11:30am - - - - - E 4 4 2 2 - - -
19/11:00am - - - - - ENE 4 4 2 2 - - -
19/10:30am - - - - - NE 4 6 2 3 - - -
19/10:00am - - - - - NNE 9 13 5 7 - - -
19/09:30am - - - - - ENE 13 15 7 8 - - -
19/09:00am - - - - - E 11 13 6 7 - - -
19/08:30am - - - - - E 7 15 4 8 - - -
19/08:00am - - - - - NNE 11 13 6 7 - - -
19/07:30am - - - - - NE 11 15 6 8 - - -
19/07:00am - - - - - NE 6 7 3 4 - - -
19/06:30am - - - - - N 6 7 3 4 - - -
19/06:00am - - - - - N 6 6 3 3 - - -
19/05:30am - - - - - CALM 0 2 0 1 - - -
19/05:00am - - - - - W 4 6 2 3 - - -
19/04:30am - - - - - SW 13 22 7 12 - - -
19/04:00am - - - - - W 7 11 4 6 - - -
19/03:30am - - - - - SW 13 17 7 9 - - -
19/03:00am - - - - - SW 32 39 17 21 - - -
19/02:40am - - - - - SSW 33 41 18 22 - - -
19/02:30am - - - - - WSW 13 20 7 11 - - -
19/02:00am - - - - - W 15 22 8 12 - - -
19/01:30am - - - - - WNW 9 15 5 8 - - -
19/01:00am - - - - - W 11 13 6 7 - - -
19/12:30am - - - - - W 6 6 3 3 - - -
19/12:00am - - - - - W 9 11 5 6 - - -
 
Date/Time
WST
Temp
°C
App
Temp
°C
Dew
Point
Rel
Hum
%
Delta-T
°C
Wind Press
QNH
hPa
Press
MSL
hPa
Rain
since 9 am
mm
Dir
 
Spd
km/h
Gust
km/h
Spd
kts
Gust
kts
18/11:30pm - - - - - SW 22 33 12 18 - - -
18/11:00pm - - - - - W 13 19 7 10 - - -
18/10:30pm - - - - - W 17 26 9 14 - - -
18/10:00pm - - - - - W 11 15 6 8 - - -
18/09:30pm - - - - - WNW 13 17 7 9 - - -
18/09:00pm - - - - - WNW 20 30 11 16 - - -
18/08:30pm - - - - - WSW 13 19 7 10 - - -
18/08:00pm - - - - - SW 17 20 9 11 - - -
18/07:30pm - - - - - W 17 24 9 13 - - -
18/07:00pm - - - - - WSW 26 37 14 20 - - -
18/06:30pm - - - - - W 19 28 10 15 - - -
18/06:00pm - - - - - W 24 30 13 16 - - -
18/05:30pm - - - - - W 20 28 11 15 - - -
18/05:00pm - - - - - WNW 20 32 11 17 - - -
18/04:30pm - - - - - W 28 41 15 22 - - -
18/04:00pm - - - - - W 32 46 17 25 - - -
18/03:30pm - - - - - W 33 44 18 24 - - -
18/03:14pm - - - - - W 30 48 16 26 - - -
18/03:00pm - - - - - WNW 30 39 16 21 - - -
18/02:30pm - - - - - W 32 46 17 25 - - -
18/02:10pm - - - - - W 32 50 17 27 - - -
18/02:00pm - - - - - W 33 48 18 26 - - -
18/01:30pm - - - - - W 32 50 17 27 - - -
18/01:25pm - - - - - W 28 50 15 27 - - -
18/01:00pm - - - - - W 26 35 14 19 - - -
18/12:30pm - - - - - W 33 52 18 28 - - -
18/12:00pm - - - - - W 30 57 16 31 - - -
18/11:30am - - - - - WNW 15 26 8 14 - - -
18/11:00am - - - - - W 30 46 16 25 - - -
18/10:30am - - - - - W 30 43 16 23 - - -
18/10:00am - - - - - WNW 20 28 11 15 - - -
18/09:30am - - - - - WNW 22 30 12 16 - - -
18/09:00am - - - - - N 15 19 8 10 - - -
18/08:30am - - - - - N 20 30 11 16 - - -
18/08:00am - - - - - N 13 20 7 11 - - -
18/07:30am - - - - - N 15 22 8 12 - - -
18/07:02am - - - - - NW 35 54 19 29 - - -
18/07:00am - - - - - WNW 39 54 21 29 - - -
18/06:30am - - - - - NW 17 26 9 14 - - -
18/06:00am - - - - - NNW 19 28 10 15 - - -
18/05:30am - - - - - NW 19 28 10 15 - - -
18/05:00am - - - - - WNW 19 26 10 14 - - -
18/04:30am - - - - - WNW 20 30 11 16 - - -
18/04:00am - - - - - NW 17 30 9 16 - - -
18/03:30am - - - - - WNW 17 24 9 13 - - -
18/03:00am - - - - - WNW 17 24 9 13 - - -
18/02:30am - - - - - WNW 11 24 6 13 - - -
18/02:00am - - - - - NNE 9 13 5 7 - - -
18/01:30am - - - - - NNE 17 20 9 11 - - -
18/01:00am - - - - - NNE 20 26 11 14 - - -
18/12:30am - - - - - NNE 32 43 17 23 - - -
18/12:00am - - - - - NNE 24 33 13 18 - - -
 
Date/Time
WST
Temp
°C
App
Temp
°C
Dew
Point
Rel
Hum
%
Delta-T
°C
Wind Press
QNH
hPa
Press
MSL
hPa
Rain
since 9 am
mm
Dir
 
Spd
km/h
Gust
km/h
Spd
kts
Gust
kts
17/11:30pm - - - - - NNE 26 37 14 20 - - -
17/11:00pm - - - - - N 22 33 12 18 - - -
17/10:30pm - - - - - N 43 61 23 33 - - -
17/10:07pm - - - - - NNW 54 89 29 48 - - -
17/10:05pm - - - - - N 28 46 15 25 - - -
17/10:00pm - - - - - N 26 41 14 22 - - -
17/09:30pm - - - - - N 20 35 11 19 - - -
17/09:15pm - - - - - N 28 44 15 24 - - -
17/09:00pm - - - - - N 13 19 7 10 - - -
17/08:30pm - - - - - N 22 37 12 20 - - -
17/08:00pm - - - - - NNE 20 30 11 16 - - -
17/07:30pm - - - - - N 24 35 13 19 - - -
17/07:00pm - - - - - NNW 30 44 16 24 - - -

Other Formats:

Comma delimited format used in spreadsheet applications
http://www.bom.gov.au/fwo/IDW60801/IDW60801.95620.axf

JavaScript Object Notation format (JSON) in row-major order
http://www.bom.gov.au/fwo/IDW60801/IDW60801.95620.json